Time;durP1;ratioP1;P1;durP2;ratioP2;P2;SDS_P1;SDS_P2;PMS_P1;PMS_P2;Temp;Humidity;BMP_temperature;BMP_pressure;BME280_temperature;BME280_humidity;BME280_pressure;Samples;Min_cycle;Max_cycle;Signal;HPM_P1;HPM_P2
2023/10/30 00:04:16;;;;;;;;;;;;;;;;;;4994273;28;4508;-60
2023/10/30 00:06:42;;;;;;;;;;;;;;;;;;4996747;28;5041;-60
2023/10/30 00:09:08;;;;;;;;;;;;;;;;;;5015204;28;4479;-60
2023/10/30 00:11:33;;;;;;;;;;;;;;;;;;5015585;28;1043;-60
2023/10/30 00:17:01;;;;;;;;;;;;;;;;;;5016071;28;4564;-60
2023/10/30 00:19:26;;;;;;;;;;;;;;;;;;5015703;28;5008;-61
2023/10/30 00:21:51;;;;;;;;;;;;;;;;;;5015984;28;5158;-60
2023/10/30 00:24:17;;;;;;;;;;;;;;;;;;5011398;28;5031;-60
2023/10/30 00:26:43;;;;;;;;;;;;;;;;;;4997282;28;1185;-60
2023/10/30 00:44:22;;;;;;;;;;;;;;;;;;5016261;28;4801;-60
2023/10/30 00:46:47;;;;;;;;;;;;;;;;;;5014010;28;4941;-60
2023/10/30 00:49:13;;;;;;;;;;;;;;;;;;5015061;28;4617;-60
2023/10/30 00:51:38;;;;;;;;;;;;;;;;;;4997356;28;5147;-60
2023/10/30 00:57:06;;;;;;;;;;;;;;;;;;5015041;28;5061;-60
2023/10/30 00:59:31;;;;;;;;;;;;;;;;;;5015718;28;1470;-60
2023/10/30 01:01:56;;;;;;;;;;;;;;;;;;5014979;28;5025;-60
2023/10/30 01:04:22;;;;;;;;;;;;;;;;;;5015193;28;4494;-60
2023/10/30 01:06:48;;;;;;;;;;;;;;;;;;5014547;28;4556;-59
2023/10/30 01:09:14;;;;;;;;;;;;;;;;;;5014811;28;4897;-60
2023/10/30 01:11:39;;;;;;;;;;;;;;;;;;5015342;28;1022;-60
2023/10/30 01:17:07;;;;;;;;;;;;;;;;;;5014866;28;4434;-60
2023/10/30 01:22:35;;;;;;;;;;;;;;;;;;5014272;28;5043;-61
2023/10/30 01:28:03;;;;;;;;;;;;;;;;;;5014936;28;4460;-60
2023/10/30 01:33:31;;;;;;;;;;;;;;;;;;5014739;28;5119;-60
2023/10/30 01:38:59;;;;;;;;;;;;;;;;;;5014404;28;4445;-61
2023/10/30 01:41:25;;;;;;;;;;;;;;;;;;5014795;28;1177;-60
2023/10/30 01:43:50;;;;;;;;;;;;;;;;;;5014391;28;5105;-60
2023/10/30 01:46:15;;;;;;;;;;;;;;;;;;5013099;28;4810;-60
2023/10/30 01:51:44;;;;;;;;;;;;;;;;;;5014696;28;4902;-60
2023/10/30 01:54:09;;;;;;;;;;;;;;;;;;4996442;28;5058;-60
2023/10/30 01:56:34;;;;;;;;;;;;;;;;;;5006560;28;1217;-60
2023/10/30 01:59:00;;;;;;;;;;;;;;;;;;4994470;28;5549;-60
2023/10/30 02:01:25;;;;;;;;;;;;;;;;;;4993337;28;5113;-60
2023/10/30 02:03:52;;;;;;;;;;;;;;;;;;4994619;28;4545;-60
2023/10/30 02:06:17;;;;;;;;;;;;;;;;;;4993087;28;4503;-60
2023/10/30 02:11:45;;;;;;;;;;;;;;;;;;4995418;28;4515;-60
2023/10/30 02:20:15;;;;;;;;;;;;;;;;;;5014796;28;4589;-60
2023/10/30 02:22:40;;;;;;;;;;;;;;;;;;5013995;28;4521;-60
2023/10/30 02:25:06;;;;;;;;;;;;;;;;;;5013940;28;5020;-60
2023/10/30 02:27:31;;;;;;;;;;;;;;;;;;5013974;28;4924;-60
2023/10/30 02:36:03;;;;;;;;;;;;;;;;;;5018255;28;4415;-60
2023/10/30 02:41:31;;;;;;;;;;;;;;;;;;5018572;28;4720;-60
2023/10/30 02:43:59;;;;;;;;;;;;;;;;;;5017448;28;5012;-60
2023/10/30 02:46:25;;;;;;;;;;;;;;;;;;5017836;28;5001;-60
2023/10/30 02:51:59;;;;;;;;;;;;;;;;;;5015539;28;5041;-63
2023/10/30 02:54:24;;;;;;;;;;;;;;;;;;4997534;28;4471;-60
2023/10/30 02:56:49;;;;;;;;;;;;;;;;;;4998221;28;1180;-60
2023/10/30 03:02:17;;;;;;;;;;;;;;;;;;4998555;28;4745;-60
2023/10/30 03:04:42;;;;;;;;;;;;;;;;;;4995268;28;4547;-59
2023/10/30 03:07:07;;;;;;;;;;;;;;;;;;4978317;28;5069;-60
2023/10/30 03:09:34;;;;;;;;;;;;;;;;;;4974881;28;4629;-60
2023/10/30 03:18:22;;;;;;;;;;;;;;;;;;4984940;28;4714;-60
2023/10/30 03:20:47;;;;;;;;;;;;;;;;;;4976057;28;1110;-60
2023/10/30 03:23:13;;;;;;;;;;;;;;;;;;4977726;28;4807;-60
2023/10/30 03:25:39;;;;;;;;;;;;;;;;;;4977708;28;4556;-60
2023/10/30 03:28:33;;;;;;;;;;;;;;;;;;4978129;28;4715;-60
2023/10/30 03:31:06;;;;;;;;;;;;;;;;;;4986755;28;5072;-60
2023/10/30 03:33:31;;;;;;;;;;;;;;;;;;4997180;28;4440;-60
2023/10/30 03:38:59;;;;;;;;;;;;;;;;;;4996941;28;5017;-61
2023/10/30 03:44:27;;;;;;;;;;;;;;;;;;4997562;28;4775;-60
2023/10/30 03:46:53;;;;;;;;;;;;;;;;;;5008444;28;4943;-60
2023/10/30 03:49:18;;;;;;;;;;;;;;;;;;4998713;28;5010;-60
2023/10/30 03:57:57;;;;;;;;;;;;;;;;;;5016273;28;4651;-60
2023/10/30 04:00:23;;;;;;;;;;;;;;;;;;5016392;28;4878;-60
2023/10/30 04:02:48;;;;;;;;;;;;;;;;;;5016362;28;1910;-60
2023/10/30 04:05:14;;;;;;;;;;;;;;;;;;4999352;28;4957;-59
2023/10/30 04:10:42;;;;;;;;;;;;;;;;;;4996138;28;4903;-60
2023/10/30 04:13:07;;;;;;;;;;;;;;;;;;4996437;28;4967;-60
2023/10/30 04:15:34;;;;;;;;;;;;;;;;;;4996185;28;4980;-60
2023/10/30 04:18:00;;;;;;;;;;;;;;;;;;4994433;28;4450;-60
2023/10/30 04:23:28;;;;;;;;;;;;;;;;;;4977532;28;5374;-60
2023/10/30 04:25:53;;;;;;;;;;;;;;;;;;4993056;28;4799;-60
2023/10/30 04:28:18;;;;;;;;;;;;;;;;;;4984520;28;4473;-60
2023/10/30 04:30:44;;;;;;;;;;;;;;;;;;4976735;28;4581;-60
2023/10/30 04:36:13;;;;;;;;;;;;;;;;;;4976698;28;4949;-61
2023/10/30 04:38:38;;;;;;;;;;;;;;;;;;4976807;28;1070;-61
2023/10/30 04:41:04;;;;;;;;;;;;;;;;;;4976603;28;5044;-60
2023/10/30 04:43:33;;;;;;;;;;;;;;;;;;4987981;28;5081;-60
2023/10/30 04:52:25;;;;;;;;;;;;;;;;;;4995651;28;5043;-60
2023/10/30 04:57:53;;;;;;;;;;;;;;;;;;4995864;28;5481;-60
2023/10/30 05:06:25;;;;;;;;;;;;;;;;;;4991471;28;5186;-60
2023/10/30 05:08:50;;;;;;;;;;;;;;;;;;4993943;28;1118;-60
2023/10/30 05:11:16;;;;;;;;;;;;;;;;;;5014462;28;4411;-60
2023/10/30 05:13:41;;;;;;;;;;;;;;;;;;4997598;28;5139;-59
2023/10/30 05:16:06;;;;;;;;;;;;;;;;;;4995068;28;4633;-60
2023/10/30 05:18:32;;;;;;;;;;;;;;;;;;4994997;28;4914;-60
2023/10/30 05:24:00;;;;;;;;;;;;;;;;;;4995060;28;4474;-60
2023/10/30 05:26:26;;;;;;;;;;;;;;;;;;4995062;28;1066;-60
2023/10/30 05:28:51;;;;;;;;;;;;;;;;;;5009813;28;4815;-60
2023/10/30 05:34:20;;;;;;;;;;;;;;;;;;4995334;28;4453;-60
2023/10/30 05:36:45;;;;;;;;;;;;;;;;;;4994245;28;4950;-61
2023/10/30 05:39:10;;;;;;;;;;;;;;;;;;4977238;28;5203;-60
2023/10/30 05:41:36;;;;;;;;;;;;;;;;;;4995170;28;1062;-60
2023/10/30 05:47:04;;;;;;;;;;;;;;;;;;4995195;28;4873;-60
2023/10/30 05:52:32;;;;;;;;;;;;;;;;;;4994751;28;4449;-60
2023/10/30 05:58:00;;;;;;;;;;;;;;;;;;4994558;28;4862;-60
2023/10/30 06:03:28;;;;;;;;;;;;;;;;;;4994659;28;4475;-60
2023/10/30 06:05:53;;;;;;;;;;;;;;;;;;4997434;28;4682;-59
2023/10/30 06:08:22;;;;;;;;;;;;;;;;;;5017508;28;1132;-60
2023/10/30 06:10:47;;;;;;;;;;;;;;;;;;5017892;28;4614;-60
2023/10/30 06:13:40;;;;;;;;;;;;;;;;;;5003923;28;5033;-59
2023/10/30 06:19:09;;;;;;;;;;;;;;;;;;4997028;28;5090;-59
2023/10/30 06:21:35;;;;;;;;;;;;;;;;;;4998309;28;5113;-60
2023/10/30 06:24:00;;;;;;;;;;;;;;;;;;5023299;28;5143;-60
2023/10/30 06:26:26;;;;;;;;;;;;;;;;;;5038052;28;961;-59
2023/10/30 06:31:54;;;;;;;;;;;;;;;;;;5037529;28;5097;-59
2023/10/30 06:37:22;;;;;;;;;;;;;;;;;;5037771;28;4644;-59
2023/10/30 06:39:48;;;;;;;;;;;;;;;;;;5036921;28;5045;-60
2023/10/30 06:42:13;;;;;;;;;;;;;;;;;;5037988;28;5051;-74
2023/10/30 06:44:38;;;;;;;;;;;;;;;;;;5037741;28;945;-73
2023/10/30 06:50:07;;;;;;;;;;;;;;;;;;5037755;28;5348;-82
2023/10/30 06:52:32;;;;;;;;;;;;;;;;;;5037028;28;4478;-82
2023/10/30 06:54:58;;;;;;;;;;;;;;;;;;5037072;28;4997;-60
2023/10/30 06:57:23;;;;;;;;;;;;;;;;;;5019392;28;4878;-56
2023/10/30 06:59:53;;;;;;;;;;;;;;;;;;5022383;28;3030;-55
2023/10/30 07:05:21;;;;;;;;;;;;;;;;;;4975322;28;4611;-56
2023/10/30 07:07:46;;;;;;;;;;;;;;;;;;4992504;28;5075;-54
2023/10/30 07:10:20;;;;;;;;;;;;;;;;;;4985367;28;4704;-55
2023/10/30 07:12:45;;;;;;;;;;;;;;;;;;4977766;28;4547;-55
2023/10/30 07:15:10;;;;;;;;;;;;;;;;;;4977711;28;4485;-55
2023/10/30 07:17:36;;;;;;;;;;;;;;;;;;4979170;28;1106;-54
2023/10/30 07:20:03;;;;;;;;;;;;;;;;;;4977092;28;4774;-55
2023/10/30 07:22:28;;;;;;;;;;;;;;;;;;4977319;28;5095;-56
2023/10/30 07:24:55;;;;;;;;;;;;;;;;;;4977740;28;4454;-55
2023/10/30 07:27:20;;;;;;;;;;;;;;;;;;4986741;28;4856;-55
2023/10/30 07:30:04;;;;;;;;;;;;;;;;;;5017256;28;962;-55
2023/10/30 07:32:30;;;;;;;;;;;;;;;;;;4997096;28;4637;-54
2023/10/30 07:37:58;;;;;;;;;;;;;;;;;;4997118;28;4728;-55
2023/10/30 07:40:26;;;;;;;;;;;;;;;;;;4996622;28;5000;-56
2023/10/30 07:42:52;;;;;;;;;;;;;;;;;;4995372;28;5067;-54
2023/10/30 07:45:17;;;;;;;;;;;;;;;;;;4997289;28;4475;-55
2023/10/30 07:47:43;;;;;;;;;;;;;;;;;;4983637;28;1236;-55
2023/10/30 07:50:08;;;;;;;;;;;;;;;;;;4977567;28;4932;-55
2023/10/30 07:52:35;;;;;;;;;;;;;;;;;;4998495;28;4950;-55
2023/10/30 07:58:06;;;;;;;;;;;;;;;;;;4996638;28;5009;-54
2023/10/30 08:00:38;;;;;;;;;;;;;;;;;;5000323;28;5242;-55
2023/10/30 08:03:03;;;;;;;;;;;;;;;;;;5015995;28;4509;-54
2023/10/30 08:05:35;;;;;;;;;;;;;;;;;;4999866;28;1189;-55
2023/10/30 08:20:13;;;;;;;;;;;;;;;;;;4997367;28;5041;-55
2023/10/30 08:22:38;;;;;;;;;;;;;;;;;;5015320;28;4875;-55
2023/10/30 08:25:03;;;;;;;;;;;;;;;;;;5015689;28;5009;-55
2023/10/30 08:27:29;;;;;;;;;;;;;;;;;;5012177;28;5007;-54
2023/10/30 08:32:58;;;;;;;;;;;;;;;;;;4996023;28;5205;-56
2023/10/30 08:35:23;;;;;;;;;;;;;;;;;;4994920;28;1277;-55
2023/10/30 08:37:48;;;;;;;;;;;;;;;;;;4995817;28;4557;-55
2023/10/30 08:40:14;;;;;;;;;;;;;;;;;;4978430;28;4500;-54
2023/10/30 08:45:42;;;;;;;;;;;;;;;;;;4995688;28;4644;-54
2023/10/30 08:48:08;;;;;;;;;;;;;;;;;;4995225;28;4955;-54
2023/10/30 08:50:33;;;;;;;;;;;;;;;;;;4995983;28;1167;-55
2023/10/30 08:52:58;;;;;;;;;;;;;;;;;;4995550;28;5281;-56
2023/10/30 08:58:33;;;;;;;;;;;;;;;;;;4995829;28;4914;-55
2023/10/30 09:00:58;;;;;;;;;;;;;;;;;;5006613;28;5035;-54
2023/10/30 09:03:23;;;;;;;;;;;;;;;;;;4995979;28;4614;-55
2023/10/30 09:05:49;;;;;;;;;;;;;;;;;;4987802;28;2802;-55
2023/10/30 09:11:17;;;;;;;;;;;;;;;;;;4976659;28;4759;-52
2023/10/30 09:13:43;;;;;;;;;;;;;;;;;;4977302;28;5001;-53
2023/10/30 09:16:08;;;;;;;;;;;;;;;;;;4984983;28;5146;-54
2023/10/30 09:18:34;;;;;;;;;;;;;;;;;;4974017;28;5038;-55
2023/10/30 09:27:05;;;;;;;;;;;;;;;;;;4974315;28;4964;-51
2023/10/30 09:29:30;;;;;;;;;;;;;;;;;;4974512;28;1150;-53
2023/10/30 09:31:59;;;;;;;;;;;;;;;;;;4973860;28;4675;-49
2023/10/30 09:35:01;;;;;;;;;;;;;;;;;;4975633;28;5023;-52
2023/10/30 09:37:26;;;;;;;;;;;;;;;;;;4994690;28;4573;-47
2023/10/30 09:42:54;;;;;;;;;;;;;;;;;;5013779;28;4426;-50
2023/10/30 09:45:23;;;;;;;;;;;;;;;;;;5013849;28;4434;-47
2023/10/30 09:47:52;;;;;;;;;;;;;;;;;;5013330;28;1715;-46
2023/10/30 09:50:17;;;;;;;;;;;;;;;;;;4992988;28;4545;-54
2023/10/30 09:52:43;;;;;;;;;;;;;;;;;;4970693;28;5009;-61
2023/10/30 09:55:11;;;;;;;;;;;;;;;;;;4967075;28;5583;-61
2023/10/30 09:57:36;;;;;;;;;;;;;;;;;;4988930;28;4800;-61
2023/10/30 10:03:07;;;;;;;;;;;;;;;;;;4975242;28;5161;-60
2023/10/30 10:05:32;;;;;;;;;;;;;;;;;;4975581;28;1236;-63
2023/10/30 10:08:05;;;;;;;;;;;;;;;;;;4973286;28;4937;-62
2023/10/30 10:13:33;;;;;;;;;;;;;;;;;;4974971;28;4980;-60
2023/10/30 10:16:00;;;;;;;;;;;;;;;;;;4975300;28;4589;-61
2023/10/30 10:18:29;;;;;;;;;;;;;;;;;;4975096;28;5063;-63
2023/10/30 10:23:57;;;;;;;;;;;;;;;;;;4974731;28;5023;-54
2023/10/30 10:26:29;;;;;;;;;;;;;;;;;;4975262;28;1226;-55
2023/10/30 10:28:55;;;;;;;;;;;;;;;;;;4957950;28;4924;-55
2023/10/30 10:31:20;;;;;;;;;;;;;;;;;;4974890;28;4601;-55
2023/10/30 10:34:21;;;;;;;;;;;;;;;;;;4958087;28;5047;-53
2023/10/30 10:37:14;;;;;;;;;;;;;;;;;;4972312;28;4450;-55
2023/10/30 10:39:50;;;;;;;;;;;;;;;;;;4971954;28;4498;-55
2023/10/30 10:42:19;;;;;;;;;;;;;;;;;;4971790;28;5030;-53
2023/10/30 10:44:44;;;;;;;;;;;;;;;;;;4966628;28;2910;-53
2023/10/30 10:47:13;;;;;;;;;;;;;;;;;;4981550;28;5046;-54
2023/10/30 10:52:41;;;;;;;;;;;;;;;;;;4990646;28;5072;-52
2023/10/30 10:55:07;;;;;;;;;;;;;;;;;;4997695;28;4767;-55
2023/10/30 10:57:41;;;;;;;;;;;;;;;;;;5003590;28;5038;-53
2023/10/30 11:03:21;;;;;;;;;;;;;;;;;;4992693;28;5138;-60
2023/10/30 11:05:47;;;;;;;;;;;;;;;;;;4978643;28;1115;-61
2023/10/30 11:08:25;;;;;;;;;;;;;;;;;;5027681;28;5011;-61
2023/10/30 11:13:59;;;;;;;;;;;;;;;;;;4998108;28;4530;-58
2023/10/30 11:16:44;;;;;;;;;;;;;;;;;;4996833;28;4465;-60
2023/10/30 11:19:10;;;;;;;;;;;;;;;;;;5012396;28;4596;-57
2023/10/30 11:24:38;;;;;;;;;;;;;;;;;;4997516;28;4461;-56
2023/10/30 11:27:22;;;;;;;;;;;;;;;;;;4996014;28;4650;-56
2023/10/30 11:29:54;;;;;;;;;;;;;;;;;;4997427;28;966;-58
2023/10/30 11:32:31;;;;;;;;;;;;;;;;;;4996998;28;4628;-63
2023/10/30 11:34:57;;;;;;;;;;;;;;;;;;5014480;28;4510;-63
2023/10/30 11:40:25;;;;;;;;;;;;;;;;;;5036437;28;4824;-63
2023/10/30 11:43:01;;;;;;;;;;;;;;;;;;5018343;28;4444;-63
2023/10/30 11:45:26;;;;;;;;;;;;;;;;;;5018395;28;4628;-63
2023/10/30 11:50:54;;;;;;;;;;;;;;;;;;5036097;28;5148;-64
2023/10/30 11:53:21;;;;;;;;;;;;;;;;;;5036937;28;1252;-64
2023/10/30 11:55:49;;;;;;;;;;;;;;;;;;5036164;28;4929;-63
2023/10/30 11:58:14;;;;;;;;;;;;;;;;;;5051089;28;5233;-63
2023/10/30 12:03:43;;;;;;;;;;;;;;;;;;5035912;28;5029;-63
2023/10/30 12:06:08;;;;;;;;;;;;;;;;;;5034720;28;4449;-63
2023/10/30 12:08:33;;;;;;;;;;;;;;;;;;5035791;28;1090;-63
2023/10/30 12:11:00;;;;;;;;;;;;;;;;;;5027659;28;4920;-63
2023/10/30 12:16:29;;;;;;;;;;;;;;;;;;5016451;28;5380;-63
2023/10/30 12:18:56;;;;;;;;;;;;;;;;;;5014290;28;5157;-65
2023/10/30 12:21:21;;;;;;;;;;;;;;;;;;5015820;28;5054;-65
2023/10/30 12:23:50;;;;;;;;;;;;;;;;;;5015784;28;1903;-67
2023/10/30 12:29:22;;;;;;;;;;;;;;;;;;5016632;28;4543;-72
2023/10/30 12:31:51;;;;;;;;;;;;;;;;;;5015952;28;4924;-72
2023/10/30 12:34:22;;;;;;;;;;;;;;;;;;5030603;28;4920;-71
2023/10/30 12:40:05;;;;;;;;;;;;;;;;;;5015712;28;4666;-70
2023/10/30 12:42:33;;;;;;;;;;;;;;;;;;5015037;28;5003;-72
2023/10/30 12:45:01;;;;;;;;;;;;;;;;;;5015502;28;5049;-71
2023/10/30 12:47:27;;;;;;;;;;;;;;;;;;5015817;28;1317;-62
2023/10/30 12:49:52;;;;;;;;;;;;;;;;;;5015213;28;4986;-62
2023/10/30 12:52:17;;;;;;;;;;;;;;;;;;5015683;28;4921;-58
2023/10/30 12:57:45;;;;;;;;;;;;;;;;;;5013755;28;5083;-58
2023/10/30 13:00:11;;;;;;;;;;;;;;;;;;5014669;28;4437;-58
2023/10/30 13:02:36;;;;;;;;;;;;;;;;;;5015501;28;1980;-57
2023/10/30 13:05:02;;;;;;;;;;;;;;;;;;5030079;28;4374;-57
2023/10/30 13:07:27;;;;;;;;;;;;;;;;;;4998754;28;4546;-57
2023/10/30 13:09:52;;;;;;;;;;;;;;;;;;4955182;28;4531;-56
2023/10/30 13:12:18;;;;;;;;;;;;;;;;;;4972297;28;4449;-58
2023/10/30 13:14:43;;;;;;;;;;;;;;;;;;4979803;28;1014;-57
2023/10/30 13:20:11;;;;;;;;;;;;;;;;;;4957712;28;4447;-58
2023/10/30 13:22:36;;;;;;;;;;;;;;;;;;4956220;28;4431;-58
2023/10/30 13:25:03;;;;;;;;;;;;;;;;;;4956016;28;4548;-58
2023/10/30 13:27:29;;;;;;;;;;;;;;;;;;4955953;29;5017;-57
2023/10/30 13:32:57;;;;;;;;;;;;;;;;;;4955955;29;4663;-61
2023/10/30 13:35:22;;;;;;;;;;;;;;;;;;4956502;29;1209;-58
2023/10/30 13:37:48;;;;;;;;;;;;;;;;;;4956159;28;5271;-57
2023/10/30 13:40:13;;;;;;;;;;;;;;;;;;4956389;29;4482;-58
2023/10/30 13:45:41;;;;;;;;;;;;;;;;;;4956140;29;4696;-57
2023/10/30 13:48:06;;;;;;;;;;;;;;;;;;4955576;28;4921;-57
2023/10/30 13:50:32;;;;;;;;;;;;;;;;;;4956807;29;1048;-57
2023/10/30 13:52:57;;;;;;;;;;;;;;;;;;4956083;29;4824;-58
2023/10/30 13:58:25;;;;;;;;;;;;;;;;;;4955785;29;4435;-58
2023/10/30 14:00:51;;;;;;;;;;;;;;;;;;4955549;29;5008;-58
2023/10/30 14:03:16;;;;;;;;;;;;;;;;;;4955447;28;4989;-58
2023/10/30 14:05:42;;;;;;;;;;;;;;;;;;4937619;28;1159;-58
2023/10/30 14:08:07;;;;;;;;;;;;;;;;;;4972257;28;4908;-58
2023/10/30 14:10:32;;;;;;;;;;;;;;;;;;4994371;28;4494;-59
2023/10/30 14:12:59;;;;;;;;;;;;;;;;;;4994725;28;5055;-58
2023/10/30 14:18:27;;;;;;;;;;;;;;;;;;4994346;28;4466;-57
2023/10/30 14:21:28;;;;;;;;;;;;;;;;;;4984920;28;5331;-57
2023/10/30 14:30:11;;;;;;;;;;;;;;;;;;4996709;28;4744;-59
2023/10/30 14:32:36;;;;;;;;;;;;;;;;;;4981124;28;1097;-58
2023/10/30 14:35:03;;;;;;;;;;;;;;;;;;4997768;28;4588;-58
2023/10/30 14:37:28;;;;;;;;;;;;;;;;;;4998396;28;4424;-58
2023/10/30 14:42:57;;;;;;;;;;;;;;;;;;4998081;28;5131;-57
2023/10/30 14:45:22;;;;;;;;;;;;;;;;;;4997486;28;4416;-57
2023/10/30 14:47:47;;;;;;;;;;;;;;;;;;4998460;28;1077;-58
2023/10/30 14:50:13;;;;;;;;;;;;;;;;;;4998045;28;5053;-58
2023/10/30 14:52:38;;;;;;;;;;;;;;;;;;4978678;28;4665;-58
2023/10/30 14:55:03;;;;;;;;;;;;;;;;;;4966961;28;5873;-58
2023/10/30 14:57:29;;;;;;;;;;;;;;;;;;4977975;28;5079;-58
2023/10/30 14:59:54;;;;;;;;;;;;;;;;;;4974040;28;4962;-58
2023/10/30 15:02:20;;;;;;;;;;;;;;;;;;4978035;28;1947;-59
2023/10/30 15:04:45;;;;;;;;;;;;;;;;;;4977897;28;5295;-58
2023/10/30 15:07:10;;;;;;;;;;;;;;;;;;4977186;28;5205;-58
2023/10/30 15:09:35;;;;;;;;;;;;;;;;;;4977212;28;5234;-58
2023/10/30 15:12:01;;;;;;;;;;;;;;;;;;4995848;28;4949;-59
2023/10/30 15:14:28;;;;;;;;;;;;;;;;;;4997895;28;1252;-58
2023/10/30 15:16:53;;;;;;;;;;;;;;;;;;4980245;28;4478;-58
2023/10/30 15:19:18;;;;;;;;;;;;;;;;;;4997246;28;5219;-59
2023/10/30 15:21:44;;;;;;;;;;;;;;;;;;4997466;28;4430;-58
2023/10/30 15:24:09;;;;;;;;;;;;;;;;;;4997436;28;4505;-58
2023/10/30 15:29:37;;;;;;;;;;;;;;;;;;4998120;28;4571;-58
2023/10/30 15:32:02;;;;;;;;;;;;;;;;;;4997049;28;4833;-58
2023/10/30 15:34:28;;;;;;;;;;;;;;;;;;4979445;28;4994;-59
2023/10/30 15:36:53;;;;;;;;;;;;;;;;;;4996931;28;5063;-59
2023/10/30 15:42:21;;;;;;;;;;;;;;;;;;4996829;28;4596;-58
2023/10/30 15:47:50;;;;;;;;;;;;;;;;;;4997591;28;5142;-59
2023/10/30 15:50:51;;;;;;;;;;;;;;;;;;4997877;28;1057;-59
2023/10/30 15:53:16;;;;;;;;;;;;;;;;;;4996819;28;5206;-59
2023/10/30 15:55:43;;;;;;;;;;;;;;;;;;4996285;28;5116;-59
2023/10/30 16:01:11;;;;;;;;;;;;;;;;;;4996534;28;4708;-59
2023/10/30 16:03:36;;;;;;;;;;;;;;;;;;4994854;28;4551;-59
2023/10/30 16:06:01;;;;;;;;;;;;;;;;;;5000751;28;5114;-59
2023/10/30 16:08:26;;;;;;;;;;;;;;;;;;5016782;28;1636;-59
2023/10/30 16:13:54;;;;;;;;;;;;;;;;;;5028389;28;4623;-59
2023/10/30 16:16:20;;;;;;;;;;;;;;;;;;5028907;28;4507;-59
2023/10/30 16:18:45;;;;;;;;;;;;;;;;;;5034337;28;5026;-59
2023/10/30 16:21:10;;;;;;;;;;;;;;;;;;5035479;28;4528;-59
2023/10/30 16:23:44;;;;;;;;;;;;;;;;;;5036481;28;1971;-59
2023/10/30 16:29:15;;;;;;;;;;;;;;;;;;5011127;28;4432;-58
2023/10/30 16:31:40;;;;;;;;;;;;;;;;;;5001929;28;4980;-59
2023/10/30 16:34:05;;;;;;;;;;;;;;;;;;4994887;28;4981;-58
2023/10/30 16:36:32;;;;;;;;;;;;;;;;;;4994927;28;4889;-59
2023/10/30 16:42:00;;;;;;;;;;;;;;;;;;4988298;28;4418;-59
2023/10/30 16:44:26;;;;;;;;;;;;;;;;;;4996092;28;1965;-59
2023/10/30 16:46:51;;;;;;;;;;;;;;;;;;4978175;28;4656;-59
2023/10/30 16:49:16;;;;;;;;;;;;;;;;;;4995514;28;4579;-58
2023/10/30 16:54:44;;;;;;;;;;;;;;;;;;4995559;28;5731;-59
2023/10/30 16:57:09;;;;;;;;;;;;;;;;;;4995686;28;5041;-59
2023/10/30 16:59:41;;;;;;;;;;;;;;;;;;4995993;28;1121;-58
2023/10/30 17:02:07;;;;;;;;;;;;;;;;;;4995348;28;4962;-61
2023/10/30 17:07:35;;;;;;;;;;;;;;;;;;4995365;28;4981;-62
2023/10/30 17:10:00;;;;;;;;;;;;;;;;;;4996389;28;5034;-61
2023/10/30 17:12:25;;;;;;;;;;;;;;;;;;4995405;28;4470;-60
2023/10/30 17:14:53;;;;;;;;;;;;;;;;;;4995867;28;1269;-61
2023/10/30 17:17:21;;;;;;;;;;;;;;;;;;4994136;28;4860;-65
2023/10/30 17:22:49;;;;;;;;;;;;;;;;;;4995221;28;5113;-64
2023/10/30 17:25:14;;;;;;;;;;;;;;;;;;4994958;28;4978;-64
2023/10/30 17:27:41;;;;;;;;;;;;;;;;;;4994966;28;5014;-64
2023/10/30 17:30:09;;;;;;;;;;;;;;;;;;4978216;28;4944;-61
2023/10/30 17:35:37;;;;;;;;;;;;;;;;;;4993643;28;4662;-61
2023/10/30 17:38:02;;;;;;;;;;;;;;;;;;4995024;28;4906;-60
2023/10/30 17:40:30;;;;;;;;;;;;;;;;;;4994913;28;5125;-60
2023/10/30 17:42:55;;;;;;;;;;;;;;;;;;4994586;28;5107;-60
2023/10/30 17:48:24;;;;;;;;;;;;;;;;;;4994461;28;5009;-61
2023/10/30 17:50:52;;;;;;;;;;;;;;;;;;4995223;28;1095;-60
2023/10/30 17:53:17;;;;;;;;;;;;;;;;;;4994318;28;5074;-61
2023/10/30 18:04:50;;;;;;;;;;;;;;;;;;4975353;28;4612;-60
2023/10/30 18:07:16;;;;;;;;;;;;;;;;;;4973221;28;4924;-58
2023/10/30 18:12:44;;;;;;;;;;;;;;;;;;4987188;28;4725;-59
2023/10/30 18:15:10;;;;;;;;;;;;;;;;;;4978896;28;4463;-60
2023/10/30 18:17:35;;;;;;;;;;;;;;;;;;4995063;28;1097;-59
2023/10/30 18:20:03;;;;;;;;;;;;;;;;;;4993873;28;4986;-59
2023/10/30 18:25:31;;;;;;;;;;;;;;;;;;4994369;28;5262;-59
2023/10/30 18:27:59;;;;;;;;;;;;;;;;;;4993656;28;5029;-59
2023/10/30 18:30:28;;;;;;;;;;;;;;;;;;4994794;28;5000;-59
2023/10/30 18:32:53;;;;;;;;;;;;;;;;;;4994650;28;4986;-59
2023/10/30 18:38:21;;;;;;;;;;;;;;;;;;4995249;28;4588;-59
2023/10/30 18:43:49;;;;;;;;;;;;;;;;;;4998017;28;4930;-60
2023/10/30 18:46:19;;;;;;;;;;;;;;;;;;5004206;28;4805;-60
2023/10/30 18:48:45;;;;;;;;;;;;;;;;;;5014298;28;4462;-63
2023/10/30 18:51:10;;;;;;;;;;;;;;;;;;5013721;28;4811;-61
2023/10/30 18:56:38;;;;;;;;;;;;;;;;;;5012010;28;4557;-57
2023/10/30 19:02:14;;;;;;;;;;;;;;;;;;5014194;28;4918;-58
2023/10/30 19:07:35;;;;;;;;;;;;;;;;;;4992660;28;5129;-58
2023/10/30 19:13:07;;;;;;;;;;;;;;;;;;4994450;28;4405;-58
2023/10/30 19:15:33;;;;;;;;;;;;;;;;;;5013233;28;4497;-58
2023/10/30 19:18:00;;;;;;;;;;;;;;;;;;5015527;28;5045;-57
2023/10/30 19:20:25;;;;;;;;;;;;;;;;;;5015544;28;1173;-58
2023/10/30 19:23:01;;;;;;;;;;;;;;;;;;5014378;28;4981;-57
2023/10/30 19:25:26;;;;;;;;;;;;;;;;;;5017269;28;4846;-57
2023/10/30 19:27:52;;;;;;;;;;;;;;;;;;5016797;28;4900;-57
2023/10/30 19:33:27;;;;;;;;;;;;;;;;;;5016861;28;5245;-63
2023/10/30 19:38:55;;;;;;;;;;;;;;;;;;5017168;28;4974;-60
2023/10/30 19:41:20;;;;;;;;;;;;;;;;;;5016719;28;1289;-64
2023/10/30 19:43:46;;;;;;;;;;;;;;;;;;4998674;28;4621;-59
2023/10/30 19:46:11;;;;;;;;;;;;;;;;;;5016563;28;4602;-59
2023/10/30 19:51:42;;;;;;;;;;;;;;;;;;5016480;28;4835;-59
2023/10/30 19:54:08;;;;;;;;;;;;;;;;;;5013955;28;4638;-59
2023/10/30 19:56:33;;;;;;;;;;;;;;;;;;5016914;28;1084;-59
2023/10/30 19:58:58;;;;;;;;;;;;;;;;;;5005709;28;4689;-57
2023/10/30 20:04:26;;;;;;;;;;;;;;;;;;4997413;28;4634;-72
2023/10/30 20:06:51;;;;;;;;;;;;;;;;;;4979415;28;5079;-71
2023/10/30 20:09:17;;;;;;;;;;;;;;;;;;4995145;28;5081;-69
2023/10/30 20:11:42;;;;;;;;;;;;;;;;;;4996839;28;1093;-69
2023/10/30 20:14:42;;;;;;;;;;;;;;;;;;4999062;28;4433;-70
2023/10/30 20:20:10;;;;;;;;;;;;;;;;;;4996898;28;5038;-69
2023/10/30 20:25:39;;;;;;;;;;;;;;;;;;4996583;28;5053;-69
2023/10/30 20:34:27;;;;;;;;;;;;;;;;;;5016087;28;5150;-74
2023/10/30 20:42:58;;;;;;;;;;;;;;;;;;5016118;28;5265;-71
2023/10/30 20:48:26;;;;;;;;;;;;;;;;;;5013281;28;5117;-68
2023/10/30 21:03:02;;;;;;;;;;;;;;;;;;4995449;28;5012;-58
2023/10/30 21:08:40;;;;;;;;;;;;;;;;;;4988504;28;4575;-59
2023/10/30 21:11:06;;;;;;;;;;;;;;;;;;5006082;28;4454;-59
2023/10/30 21:13:32;;;;;;;;;;;;;;;;;;5013708;28;4638;-58
2023/10/30 21:15:57;;;;;;;;;;;;;;;;;;5006041;28;5084;-59
2023/10/30 21:18:23;;;;;;;;;;;;;;;;;;4995217;28;5059;-59
2023/10/30 21:20:48;;;;;;;;;;;;;;;;;;4993586;28;3349;-59
2023/10/30 21:23:14;;;;;;;;;;;;;;;;;;4992307;28;5135;-59
2023/10/30 21:25:39;;;;;;;;;;;;;;;;;;4995478;28;5720;-66
2023/10/30 21:34:09;;;;;;;;;;;;;;;;;;4975790;28;4633;-59
2023/10/30 21:36:35;;;;;;;;;;;;;;;;;;4975291;28;4976;-61
2023/10/30 21:39:00;;;;;;;;;;;;;;;;;;4974910;28;4675;-59
2023/10/30 21:41:26;;;;;;;;;;;;;;;;;;4975658;28;1057;-60
2023/10/30 21:46:54;;;;;;;;;;;;;;;;;;4975893;28;5267;-61
2023/10/30 21:52:22;;;;;;;;;;;;;;;;;;4975632;28;5180;-60
2023/10/30 21:54:47;;;;;;;;;;;;;;;;;;4987391;28;5117;-59
2023/10/30 21:57:13;;;;;;;;;;;;;;;;;;4995011;28;4999;-60
2023/10/30 21:59:38;;;;;;;;;;;;;;;;;;4995136;28;1206;-60
2023/10/30 22:02:37;;;;;;;;;;;;;;;;;;4995200;28;4787;-60
2023/10/30 22:08:08;;;;;;;;;;;;;;;;;;4994112;28;5018;-60
2023/10/30 22:10:33;;;;;;;;;;;;;;;;;;4994638;28;5899;-60
2023/10/30 22:12:58;;;;;;;;;;;;;;;;;;4994923;28;5002;-60
2023/10/30 22:18:26;;;;;;;;;;;;;;;;;;4994588;28;4521;-60
2023/10/30 22:20:52;;;;;;;;;;;;;;;;;;4994515;28;5070;-60
2023/10/30 22:23:17;;;;;;;;;;;;;;;;;;4994917;28;1960;-59
2023/10/30 22:25:43;;;;;;;;;;;;;;;;;;5013828;28;5041;-59
2023/10/30 22:34:41;;;;;;;;;;;;;;;;;;5014113;28;4623;-59
2023/10/30 22:37:06;;;;;;;;;;;;;;;;;;5013890;28;4641;-60
2023/10/30 22:39:31;;;;;;;;;;;;;;;;;;4987846;28;5113;-60
2023/10/30 22:41:57;;;;;;;;;;;;;;;;;;4994460;28;4986;-60
2023/10/30 22:47:25;;;;;;;;;;;;;;;;;;4991840;28;4585;-59
2023/10/30 22:49:50;;;;;;;;;;;;;;;;;;4993456;28;5223;-60
2023/10/30 22:52:16;;;;;;;;;;;;;;;;;;4997998;28;5153;-59
2023/10/30 22:54:41;;;;;;;;;;;;;;;;;;4964242;28;4870;-59
2023/10/30 23:00:13;;;;;;;;;;;;;;;;;;5017552;28;5253;-59
2023/10/30 23:02:39;;;;;;;;;;;;;;;;;;5026736;28;1969;-59
2023/10/30 23:05:04;;;;;;;;;;;;;;;;;;5005758;28;5021;-59
2023/10/30 23:07:30;;;;;;;;;;;;;;;;;;4995322;28;4685;-60
2023/10/30 23:12:59;;;;;;;;;;;;;;;;;;4994967;28;4474;-59
2023/10/30 23:15:24;;;;;;;;;;;;;;;;;;5028606;28;5030;-60
2023/10/30 23:17:50;;;;;;;;;;;;;;;;;;5016839;28;1289;-60
2023/10/30 23:20:16;;;;;;;;;;;;;;;;;;5016875;28;4436;-60
2023/10/30 23:25:44;;;;;;;;;;;;;;;;;;5017605;28;4412;-60
2023/10/30 23:28:09;;;;;;;;;;;;;;;;;;5016925;28;4585;-60
2023/10/30 23:30:35;;;;;;;;;;;;;;;;;;5017315;28;4966;-61
2023/10/30 23:33:00;;;;;;;;;;;;;;;;;;5017303;28;4401;-60
2023/10/30 23:38:28;;;;;;;;;;;;;;;;;;5017826;28;4742;-59
2023/10/30 23:40:53;;;;;;;;;;;;;;;;;;5016829;28;4986;-60
2023/10/30 23:43:19;;;;;;;;;;;;;;;;;;5016443;28;4424;-60
2023/10/30 23:45:44;;;;;;;;;;;;;;;;;;5016550;28;5172;-60
2023/10/30 23:51:12;;;;;;;;;;;;;;;;;;5016582;28;4442;-59
2023/10/30 23:53:38;;;;;;;;;;;;;;;;;;5016878;28;1262;-59